sensor_id;sensor_type;location;lat;lon;timestamp;temperature;humidity
2931;DHT22;1475;51.454;7.150;2022-07-09T00:00:33;17.10;99.90
2931;DHT22;1475;51.454;7.150;2022-07-09T00:02:59;17.10;99.90
2931;DHT22;1475;51.454;7.150;2022-07-09T00:05:26;17.00;99.90
2931;DHT22;1475;51.454;7.150;2022-07-09T00:07:53;17.00;99.90
2931;DHT22;1475;51.454;7.150;2022-07-09T00:10:20;17.00;99.90
2931;DHT22;1475;51.454;7.150;2022-07-09T00:12:47;17.00;99.90
2931;DHT22;1475;51.454;7.150;2022-07-09T00:15:14;17.00;99.90
2931;DHT22;1475;51.454;7.150;2022-07-09T00:17:42;16.90;99.90
2931;DHT22;1475;51.454;7.150;2022-07-09T00:20:10;16.90;99.90
2931;DHT22;1475;51.454;7.150;2022-07-09T00:22:37;16.90;99.90
2931;DHT22;1475;51.454;7.150;2022-07-09T00:25:04;16.90;99.90
2931;DHT22;1475;51.454;7.150;2022-07-09T00:27:31;16.90;99.90
2931;DHT22;1475;51.454;7.150;2022-07-09T00:29:58;16.90;99.90
2931;DHT22;1475;51.454;7.150;2022-07-09T00:32:25;16.90;99.90
2931;DHT22;1475;51.454;7.150;2022-07-09T00:34:53;16.90;99.90
2931;DHT22;1475;51.454;7.150;2022-07-09T00:37:20;16.90;99.90
2931;DHT22;1475;51.454;7.150;2022-07-09T00:39:47;16.80;99.90
2931;DHT22;1475;51.454;7.150;2022-07-09T00:42:13;16.80;99.90
2931;DHT22;1475;51.454;7.150;2022-07-09T00:44:40;16.80;99.90
2931;DHT22;1475;51.454;7.150;2022-07-09T00:47:08;16.80;99.90
2931;DHT22;1475;51.454;7.150;2022-07-09T00:49:38;16.70;99.90
2931;DHT22;1475;51.454;7.150;2022-07-09T00:52:09;16.70;99.90
2931;DHT22;1475;51.454;7.150;2022-07-09T00:54:37;16.70;99.90
2931;DHT22;1475;51.454;7.150;2022-07-09T00:57:06;16.60;99.90
2931;DHT22;1475;51.454;7.150;2022-07-09T00:59:34;16.60;99.90
2931;DHT22;1475;51.454;7.150;2022-07-09T01:02:02;16.60;99.90
2931;DHT22;1475;51.454;7.150;2022-07-09T01:04:29;16.50;99.90
2931;DHT22;1475;51.454;7.150;2022-07-09T01:06:56;16.50;99.90
2931;DHT22;1475;51.454;7.150;2022-07-09T01:09:26;16.50;99.90
2931;DHT22;1475;51.454;7.150;2022-07-09T01:11:54;16.50;99.90
2931;DHT22;1475;51.454;7.150;2022-07-09T01:14:20;16.50;99.90
2931;DHT22;1475;51.454;7.150;2022-07-09T01:16:57;16.50;99.90
2931;DHT22;1475;51.454;7.150;2022-07-09T01:19:25;16.50;99.90
2931;DHT22;1475;51.454;7.150;2022-07-09T01:21:53;16.50;99.90
2931;DHT22;1475;51.454;7.150;2022-07-09T01:24:20;16.50;99.90
2931;DHT22;1475;51.454;7.150;2022-07-09T01:26:48;16.40;99.90
2931;DHT22;1475;51.454;7.150;2022-07-09T01:29:15;16.40;99.90
2931;DHT22;1475;51.454;7.150;2022-07-09T01:31:42;16.40;99.90
2931;DHT22;1475;51.454;7.150;2022-07-09T01:34:09;16.30;99.90
2931;DHT22;1475;51.454;7.150;2022-07-09T01:36:36;16.30;99.90
2931;DHT22;1475;51.454;7.150;2022-07-09T01:39:04;16.20;99.90
2931;DHT22;1475;51.454;7.150;2022-07-09T01:41:31;16.20;99.90
2931;DHT22;1475;51.454;7.150;2022-07-09T01:43:58;16.20;99.90
2931;DHT22;1475;51.454;7.150;2022-07-09T01:46:25;16.20;99.90
2931;DHT22;1475;51.454;7.150;2022-07-09T01:48:52;16.20;99.90
2931;DHT22;1475;51.454;7.150;2022-07-09T01:51:19;16.10;99.90
2931;DHT22;1475;51.454;7.150;2022-07-09T01:53:47;16.10;99.90
2931;DHT22;1475;51.454;7.150;2022-07-09T01:56:15;16.10;99.90
2931;DHT22;1475;51.454;7.150;2022-07-09T01:58:42;16.10;99.90
2931;DHT22;1475;51.454;7.150;2022-07-09T02:01:10;16.10;99.90
2931;DHT22;1475;51.454;7.150;2022-07-09T02:03:37;16.20;99.90
2931;DHT22;1475;51.454;7.150;2022-07-09T02:06:04;16.20;99.90
2931;DHT22;1475;51.454;7.150;2022-07-09T02:08:31;16.30;99.90
2931;DHT22;1475;51.454;7.150;2022-07-09T02:10:58;16.40;99.90
2931;DHT22;1475;51.454;7.150;2022-07-09T02:13:26;16.50;99.90
2931;DHT22;1475;51.454;7.150;2022-07-09T02:15:53;16.60;99.90
2931;DHT22;1475;51.454;7.150;2022-07-09T02:18:20;16.70;99.90
2931;DHT22;1475;51.454;7.150;2022-07-09T02:20:47;16.70;99.90
2931;DHT22;1475;51.454;7.150;2022-07-09T02:23:14;16.80;99.90
2931;DHT22;1475;51.454;7.150;2022-07-09T02:25:41;16.90;99.90
2931;DHT22;1475;51.454;7.150;2022-07-09T02:28:08;16.90;99.90
2931;DHT22;1475;51.454;7.150;2022-07-09T02:30:36;16.90;99.90
2931;DHT22;1475;51.454;7.150;2022-07-09T02:33:03;16.90;99.90
2931;DHT22;1475;51.454;7.150;2022-07-09T02:35:30;16.90;99.90
2931;DHT22;1475;51.454;7.150;2022-07-09T02:37:57;17.00;99.90
2931;DHT22;1475;51.454;7.150;2022-07-09T02:40:23;17.00;99.90
2931;DHT22;1475;51.454;7.150;2022-07-09T02:42:50;17.00;99.90
2931;DHT22;1475;51.454;7.150;2022-07-09T02:45:17;17.00;99.90
2931;DHT22;1475;51.454;7.150;2022-07-09T02:47:45;17.10;99.90
2931;DHT22;1475;51.454;7.150;2022-07-09T02:50:12;17.10;99.90
2931;DHT22;1475;51.454;7.150;2022-07-09T02:52:39;17.10;99.90
2931;DHT22;1475;51.454;7.150;2022-07-09T02:55:06;17.10;99.90
2931;DHT22;1475;51.454;7.150;2022-07-09T02:57:33;17.20;99.90
2931;DHT22;1475;51.454;7.150;2022-07-09T03:00:00;17.20;99.90
2931;DHT22;1475;51.454;7.150;2022-07-09T03:02:27;17.10;99.90
2931;DHT22;1475;51.454;7.150;2022-07-09T03:04:55;17.20;99.90
2931;DHT22;1475;51.454;7.150;2022-07-09T03:07:22;17.20;99.90
2931;DHT22;1475;51.454;7.150;2022-07-09T03:09:49;17.30;99.90
2931;DHT22;1475;51.454;7.150;2022-07-09T03:12:16;17.30;99.90
2931;DHT22;1475;51.454;7.150;2022-07-09T03:14:43;17.30;99.90
2931;DHT22;1475;51.454;7.150;2022-07-09T03:17:11;17.30;99.90
2931;DHT22;1475;51.454;7.150;2022-07-09T03:19:37;17.40;99.90
2931;DHT22;1475;51.454;7.150;2022-07-09T03:22:06;17.40;99.90
2931;DHT22;1475;51.454;7.150;2022-07-09T03:24:33;17.40;99.90
2931;DHT22;1475;51.454;7.150;2022-07-09T03:26:59;17.40;99.90
2931;DHT22;1475;51.454;7.150;2022-07-09T03:29:26;17.40;99.90
2931;DHT22;1475;51.454;7.150;2022-07-09T03:31:53;17.40;99.90
2931;DHT22;1475;51.454;7.150;2022-07-09T03:34:20;17.40;99.90
2931;DHT22;1475;51.454;7.150;2022-07-09T03:36:47;17.40;99.90
2931;DHT22;1475;51.454;7.150;2022-07-09T03:39:16;17.40;99.90
2931;DHT22;1475;51.454;7.150;2022-07-09T03:41:43;17.40;99.90
2931;DHT22;1475;51.454;7.150;2022-07-09T03:44:10;17.40;99.90
2931;DHT22;1475;51.454;7.150;2022-07-09T03:46:36;17.40;99.90
2931;DHT22;1475;51.454;7.150;2022-07-09T03:49:03;17.40;99.90
2931;DHT22;1475;51.454;7.150;2022-07-09T03:51:30;17.40;99.90
2931;DHT22;1475;51.454;7.150;2022-07-09T03:53:57;17.50;99.90
2931;DHT22;1475;51.454;7.150;2022-07-09T03:56:25;17.50;99.90
2931;DHT22;1475;51.454;7.150;2022-07-09T03:58:52;17.60;99.90
2931;DHT22;1475;51.454;7.150;2022-07-09T04:01:19;17.60;99.90
2931;DHT22;1475;51.454;7.150;2022-07-09T04:03:46;17.60;99.90
2931;DHT22;1475;51.454;7.150;2022-07-09T04:06:13;17.70;99.90
2931;DHT22;1475;51.454;7.150;2022-07-09T04:08:40;17.80;99.90
2931;DHT22;1475;51.454;7.150;2022-07-09T04:11:06;17.80;99.90
2931;DHT22;1475;51.454;7.150;2022-07-09T04:13:35;17.90;99.90
2931;DHT22;1475;51.454;7.150;2022-07-09T04:16:02;17.90;99.90
2931;DHT22;1475;51.454;7.150;2022-07-09T04:18:29;17.80;99.90
2931;DHT22;1475;51.454;7.150;2022-07-09T04:20:56;17.70;99.90
2931;DHT22;1475;51.454;7.150;2022-07-09T04:23:23;17.60;99.90
2931;DHT22;1475;51.454;7.150;2022-07-09T04:25:50;17.60;99.90
2931;DHT22;1475;51.454;7.150;2022-07-09T04:28:17;17.50;99.90
2931;DHT22;1475;51.454;7.150;2022-07-09T04:30:45;17.40;99.90
2931;DHT22;1475;51.454;7.150;2022-07-09T04:33:12;17.40;99.90
2931;DHT22;1475;51.454;7.150;2022-07-09T04:35:39;17.50;99.90
2931;DHT22;1475;51.454;7.150;2022-07-09T04:38:06;17.50;99.90
2931;DHT22;1475;51.454;7.150;2022-07-09T04:40:33;17.60;99.90
2931;DHT22;1475;51.454;7.150;2022-07-09T04:43:00;17.60;99.90
2931;DHT22;1475;51.454;7.150;2022-07-09T04:45:27;17.70;99.90
2931;DHT22;1475;51.454;7.150;2022-07-09T04:47:58;17.90;99.90
2931;DHT22;1475;51.454;7.150;2022-07-09T04:50:25;17.90;99.90
2931;DHT22;1475;51.454;7.150;2022-07-09T04:52:52;18.00;99.90
2931;DHT22;1475;51.454;7.150;2022-07-09T04:55:19;17.90;99.90
2931;DHT22;1475;51.454;7.150;2022-07-09T04:57:46;17.80;99.90
2931;DHT22;1475;51.454;7.150;2022-07-09T05:00:14;17.80;99.90
2931;DHT22;1475;51.454;7.150;2022-07-09T05:02:42;17.70;99.90
2931;DHT22;1475;51.454;7.150;2022-07-09T05:05:11;17.70;99.90
2931;DHT22;1475;51.454;7.150;2022-07-09T05:07:39;17.60;99.90
2931;DHT22;1475;51.454;7.150;2022-07-09T05:10:08;17.60;99.90
2931;DHT22;1475;51.454;7.150;2022-07-09T05:12:35;17.50;99.90
2931;DHT22;1475;51.454;7.150;2022-07-09T05:15:03;17.50;99.90
2931;DHT22;1475;51.454;7.150;2022-07-09T05:17:34;17.50;99.90
2931;DHT22;1475;51.454;7.150;2022-07-09T05:20:01;17.50;99.90
2931;DHT22;1475;51.454;7.150;2022-07-09T05:22:31;17.50;99.90
2931;DHT22;1475;51.454;7.150;2022-07-09T05:24:58;17.60;99.90
2931;DHT22;1475;51.454;7.150;2022-07-09T05:27:25;17.60;99.90
2931;DHT22;1475;51.454;7.150;2022-07-09T05:29:52;17.60;99.90
2931;DHT22;1475;51.454;7.150;2022-07-09T05:32:19;17.70;99.90
2931;DHT22;1475;51.454;7.150;2022-07-09T05:34:46;17.90;99.90
2931;DHT22;1475;51.454;7.150;2022-07-09T05:37:13;18.10;99.90
2931;DHT22;1475;51.454;7.150;2022-07-09T05:39:41;18.20;99.90
2931;DHT22;1475;51.454;7.150;2022-07-09T05:42:09;18.30;99.90
2931;DHT22;1475;51.454;7.150;2022-07-09T05:44:36;18.40;99.90
2931;DHT22;1475;51.454;7.150;2022-07-09T05:47:03;18.50;99.90
2931;DHT22;1475;51.454;7.150;2022-07-09T05:49:30;18.60;99.90
2931;DHT22;1475;51.454;7.150;2022-07-09T05:51:57;18.80;99.90
2931;DHT22;1475;51.454;7.150;2022-07-09T05:54:23;19.00;99.90
2931;DHT22;1475;51.454;7.150;2022-07-09T05:56:52;19.10;99.90
2931;DHT22;1475;51.454;7.150;2022-07-09T05:59:18;19.20;99.90
2931;DHT22;1475;51.454;7.150;2022-07-09T06:01:45;19.20;99.90
2931;DHT22;1475;51.454;7.150;2022-07-09T06:04:12;19.20;99.90
2931;DHT22;1475;51.454;7.150;2022-07-09T06:06:39;19.10;99.90
2931;DHT22;1475;51.454;7.150;2022-07-09T06:09:06;19.00;99.90
2931;DHT22;1475;51.454;7.150;2022-07-09T06:11:33;18.90;99.90
2931;DHT22;1475;51.454;7.150;2022-07-09T06:14:01;18.90;99.90
2931;DHT22;1475;51.454;7.150;2022-07-09T06:16:28;19.00;99.90
2931;DHT22;1475;51.454;7.150;2022-07-09T06:18:55;19.00;99.90
2931;DHT22;1475;51.454;7.150;2022-07-09T06:21:22;19.10;99.90
2931;DHT22;1475;51.454;7.150;2022-07-09T06:23:49;19.20;99.90
2931;DHT22;1475;51.454;7.150;2022-07-09T06:26:15;19.20;99.90
2931;DHT22;1475;51.454;7.150;2022-07-09T06:28:42;19.20;99.90
2931;DHT22;1475;51.454;7.150;2022-07-09T06:31:10;19.30;99.90
2931;DHT22;1475;51.454;7.150;2022-07-09T06:33:37;19.50;99.90
2931;DHT22;1475;51.454;7.150;2022-07-09T06:36:04;19.60;99.90
2931;DHT22;1475;51.454;7.150;2022-07-09T06:38:31;19.70;99.90
2931;DHT22;1475;51.454;7.150;2022-07-09T06:41:18;19.80;99.90
2931;DHT22;1475;51.454;7.150;2022-07-09T06:43:45;20.10;99.90
2931;DHT22;1475;51.454;7.150;2022-07-09T06:46:14;20.40;99.90
2931;DHT22;1475;51.454;7.150;2022-07-09T06:48:41;20.60;99.90
2931;DHT22;1475;51.454;7.150;2022-07-09T06:51:07;20.70;99.90
2931;DHT22;1475;51.454;7.150;2022-07-09T06:53:34;20.70;99.90
2931;DHT22;1475;51.454;7.150;2022-07-09T06:56:01;20.60;99.90
2931;DHT22;1475;51.454;7.150;2022-07-09T06:58:28;20.60;99.90
2931;DHT22;1475;51.454;7.150;2022-07-09T07:00:55;20.70;99.90
2931;DHT22;1475;51.454;7.150;2022-07-09T07:03:23;20.70;99.90
2931;DHT22;1475;51.454;7.150;2022-07-09T07:05:50;20.80;99.90
2931;DHT22;1475;51.454;7.150;2022-07-09T07:08:17;20.80;99.90
2931;DHT22;1475;51.454;7.150;2022-07-09T07:10:44;20.80;99.90
2931;DHT22;1475;51.454;7.150;2022-07-09T07:13:11;20.90;99.90
2931;DHT22;1475;51.454;7.150;2022-07-09T07:15:38;21.00;99.90
2931;DHT22;1475;51.454;7.150;2022-07-09T07:18:05;21.20;99.90
2931;DHT22;1475;51.454;7.150;2022-07-09T07:20:33;21.30;99.90
2931;DHT22;1475;51.454;7.150;2022-07-09T07:23:00;21.50;99.90
2931;DHT22;1475;51.454;7.150;2022-07-09T07:25:27;21.80;99.90
2931;DHT22;1475;51.454;7.150;2022-07-09T07:27:53;22.10;99.90
2931;DHT22;1475;51.454;7.150;2022-07-09T07:30:20;22.30;99.90
2931;DHT22;1475;51.454;7.150;2022-07-09T07:32:47;22.40;99.90
2931;DHT22;1475;51.454;7.150;2022-07-09T07:35:14;22.40;99.90
2931;DHT22;1475;51.454;7.150;2022-07-09T07:37:42;22.30;99.90
2931;DHT22;1475;51.454;7.150;2022-07-09T07:40:10;22.30;99.90
2931;DHT22;1475;51.454;7.150;2022-07-09T07:42:37;22.00;99.90
2931;DHT22;1475;51.454;7.150;2022-07-09T07:45:05;22.00;99.90
2931;DHT22;1475;51.454;7.150;2022-07-09T07:47:32;22.10;99.90
2931;DHT22;1475;51.454;7.150;2022-07-09T07:49:59;22.20;99.90
2931;DHT22;1475;51.454;7.150;2022-07-09T07:52:26;22.30;99.90
2931;DHT22;1475;51.454;7.150;2022-07-09T07:54:54;22.30;99.90
2931;DHT22;1475;51.454;7.150;2022-07-09T07:57:21;22.30;99.90
2931;DHT22;1475;51.454;7.150;2022-07-09T07:59:48;22.10;99.90
2931;DHT22;1475;51.454;7.150;2022-07-09T08:02:15;22.10;99.90
2931;DHT22;1475;51.454;7.150;2022-07-09T08:04:42;22.10;99.90
2931;DHT22;1475;51.454;7.150;2022-07-09T08:07:09;22.20;99.90
2931;DHT22;1475;51.454;7.150;2022-07-09T08:09:36;22.30;99.90
2931;DHT22;1475;51.454;7.150;2022-07-09T08:12:05;22.50;99.90
2931;DHT22;1475;51.454;7.150;2022-07-09T08:14:32;22.80;99.90
2931;DHT22;1475;51.454;7.150;2022-07-09T08:16:59;23.00;99.90
2931;DHT22;1475;51.454;7.150;2022-07-09T08:19:26;23.30;99.90
2931;DHT22;1475;51.454;7.150;2022-07-09T08:21:53;23.70;99.90
2931;DHT22;1475;51.454;7.150;2022-07-09T08:24:19;24.00;99.90
2931;DHT22;1475;51.454;7.150;2022-07-09T08:26:46;24.00;99.90
2931;DHT22;1475;51.454;7.150;2022-07-09T08:29:15;23.90;99.90
2931;DHT22;1475;51.454;7.150;2022-07-09T08:31:41;23.70;99.90
2931;DHT22;1475;51.454;7.150;2022-07-09T08:34:08;23.40;99.90
2931;DHT22;1475;51.454;7.150;2022-07-09T08:36:35;23.40;99.90
2931;DHT22;1475;51.454;7.150;2022-07-09T08:39:02;23.40;99.90
2931;DHT22;1475;51.454;7.150;2022-07-09T08:41:29;23.40;99.90
2931;DHT22;1475;51.454;7.150;2022-07-09T08:43:55;23.70;99.90
2931;DHT22;1475;51.454;7.150;2022-07-09T08:46:24;23.70;99.90
2931;DHT22;1475;51.454;7.150;2022-07-09T08:48:52;23.70;99.90
2931;DHT22;1475;51.454;7.150;2022-07-09T08:51:19;23.90;99.90
2931;DHT22;1475;51.454;7.150;2022-07-09T08:53:47;23.90;99.90
2931;DHT22;1475;51.454;7.150;2022-07-09T08:56:14;24.00;99.90
2931;DHT22;1475;51.454;7.150;2022-07-09T08:58:41;24.00;99.90
2931;DHT22;1475;51.454;7.150;2022-07-09T09:01:13;24.20;99.90
2931;DHT22;1475;51.454;7.150;2022-07-09T09:03:42;24.40;99.90
2931;DHT22;1475;51.454;7.150;2022-07-09T09:06:11;24.50;99.90
2931;DHT22;1475;51.454;7.150;2022-07-09T09:08:40;24.80;99.90
2931;DHT22;1475;51.454;7.150;2022-07-09T09:11:11;25.00;99.90
2931;DHT22;1475;51.454;7.150;2022-07-09T09:13:41;25.00;99.90
2931;DHT22;1475;51.454;7.150;2022-07-09T09:16:09;25.00;99.90
2931;DHT22;1475;51.454;7.150;2022-07-09T09:18:39;25.30;99.90
2931;DHT22;1475;51.454;7.150;2022-07-09T09:21:08;25.50;99.90
2931;DHT22;1475;51.454;7.150;2022-07-09T09:23:39;25.70;99.90
2931;DHT22;1475;51.454;7.150;2022-07-09T09:26:10;25.80;99.90
2931;DHT22;1475;51.454;7.150;2022-07-09T09:28:51;25.80;99.90
2931;DHT22;1475;51.454;7.150;2022-07-09T09:31:20;25.90;99.90
2931;DHT22;1475;51.454;7.150;2022-07-09T09:33:47;25.90;99.90
2931;DHT22;1475;51.454;7.150;2022-07-09T09:39:15;26.30;99.90
2931;DHT22;1475;51.454;7.150;2022-07-09T09:41:43;26.60;99.90
2931;DHT22;1475;51.454;7.150;2022-07-09T09:44:12;26.20;99.90
2931;DHT22;1475;51.454;7.150;2022-07-09T09:46:40;26.00;99.90
2931;DHT22;1475;51.454;7.150;2022-07-09T09:49:09;25.90;99.90
2931;DHT22;1475;51.454;7.150;2022-07-09T09:51:46;25.60;99.90
2931;DHT22;1475;51.454;7.150;2022-07-09T09:54:15;25.60;99.90
2931;DHT22;1475;51.454;7.150;2022-07-09T09:56:42;25.50;99.90
2931;DHT22;1475;51.454;7.150;2022-07-09T09:59:10;25.40;99.90
2931;DHT22;1475;51.454;7.150;2022-07-09T10:01:37;25.60;99.90
2931;DHT22;1475;51.454;7.150;2022-07-09T10:04:04;25.60;99.90
2931;DHT22;1475;51.454;7.150;2022-07-09T10:06:32;25.70;99.90
2931;DHT22;1475;51.454;7.150;2022-07-09T10:09:01;25.70;99.90
2931;DHT22;1475;51.454;7.150;2022-07-09T10:11:37;25.70;99.90
2931;DHT22;1475;51.454;7.150;2022-07-09T10:14:04;25.70;99.90
2931;DHT22;1475;51.454;7.150;2022-07-09T10:16:38;25.90;99.90
2931;DHT22;1475;51.454;7.150;2022-07-09T10:19:05;25.80;99.90
2931;DHT22;1475;51.454;7.150;2022-07-09T10:21:35;25.90;99.90
2931;DHT22;1475;51.454;7.150;2022-07-09T10:24:05;25.80;99.90
2931;DHT22;1475;51.454;7.150;2022-07-09T10:26:43;25.70;99.90
2931;DHT22;1475;51.454;7.150;2022-07-09T10:29:22;26.00;99.90
2931;DHT22;1475;51.454;7.150;2022-07-09T10:31:49;26.30;99.90
2931;DHT22;1475;51.454;7.150;2022-07-09T10:37:06;26.60;99.90
2931;DHT22;1475;51.454;7.150;2022-07-09T10:39:34;26.70;99.90
2931;DHT22;1475;51.454;7.150;2022-07-09T10:42:03;26.70;99.90
2931;DHT22;1475;51.454;7.150;2022-07-09T10:44:34;26.60;99.90
2931;DHT22;1475;51.454;7.150;2022-07-09T10:47:03;26.90;99.90
2931;DHT22;1475;51.454;7.150;2022-07-09T10:49:30;27.10;99.90
2931;DHT22;1475;51.454;7.150;2022-07-09T10:51:57;26.80;99.90
2931;DHT22;1475;51.454;7.150;2022-07-09T10:54:24;26.60;99.90
2931;DHT22;1475;51.454;7.150;2022-07-09T10:56:53;26.60;99.90
2931;DHT22;1475;51.454;7.150;2022-07-09T10:59:20;26.50;99.90
2931;DHT22;1475;51.454;7.150;2022-07-09T11:01:48;26.50;99.90
2931;DHT22;1475;51.454;7.150;2022-07-09T11:04:25;26.50;99.90
2931;DHT22;1475;51.454;7.150;2022-07-09T11:06:52;26.40;99.90
2931;DHT22;1475;51.454;7.150;2022-07-09T11:09:20;26.50;99.90
2931;DHT22;1475;51.454;7.150;2022-07-09T11:11:47;26.40;99.90
2931;DHT22;1475;51.454;7.150;2022-07-09T11:14:15;26.30;99.90
2931;DHT22;1475;51.454;7.150;2022-07-09T11:16:42;26.20;99.90
2931;DHT22;1475;51.454;7.150;2022-07-09T11:19:19;26.30;99.90
2931;DHT22;1475;51.454;7.150;2022-07-09T11:21:47;26.40;99.90
2931;DHT22;1475;51.454;7.150;2022-07-09T11:24:15;26.40;99.90
2931;DHT22;1475;51.454;7.150;2022-07-09T11:26:42;26.40;99.90
2931;DHT22;1475;51.454;7.150;2022-07-09T11:29:09;26.20;99.90
2931;DHT22;1475;51.454;7.150;2022-07-09T11:31:46;26.40;99.90
2931;DHT22;1475;51.454;7.150;2022-07-09T11:34:13;26.90;99.90
2931;DHT22;1475;51.454;7.150;2022-07-09T11:36:41;27.30;99.90
2931;DHT22;1475;51.454;7.150;2022-07-09T11:39:08;27.30;99.90
2931;DHT22;1475;51.454;7.150;2022-07-09T11:41:41;27.80;99.90
2931;DHT22;1475;51.454;7.150;2022-07-09T11:44:09;28.20;99.90
2931;DHT22;1475;51.454;7.150;2022-07-09T11:46:38;27.70;99.90
2931;DHT22;1475;51.454;7.150;2022-07-09T11:49:14;27.20;99.90
2931;DHT22;1475;51.454;7.150;2022-07-09T11:51:41;26.70;99.90
2931;DHT22;1475;51.454;7.150;2022-07-09T11:54:08;26.20;99.90
2931;DHT22;1475;51.454;7.150;2022-07-09T11:56:42;25.80;99.90
2931;DHT22;1475;51.454;7.150;2022-07-09T11:59:10;25.50;99.90
2931;DHT22;1475;51.454;7.150;2022-07-09T12:01:39;25.20;99.90
2931;DHT22;1475;51.454;7.150;2022-07-09T12:04:06;25.10;99.90
2931;DHT22;1475;51.454;7.150;2022-07-09T12:06:33;24.90;99.90
2931;DHT22;1475;51.454;7.150;2022-07-09T12:09:00;24.80;99.90
2931;DHT22;1475;51.454;7.150;2022-07-09T12:11:28;24.60;99.90
2931;DHT22;1475;51.454;7.150;2022-07-09T12:13:56;24.40;99.90
2931;DHT22;1475;51.454;7.150;2022-07-09T12:16:22;24.20;99.90
2931;DHT22;1475;51.454;7.150;2022-07-09T12:18:51;24.00;99.90
2931;DHT22;1475;51.454;7.150;2022-07-09T12:21:19;23.90;99.90
2931;DHT22;1475;51.454;7.150;2022-07-09T12:23:45;23.70;99.90
2931;DHT22;1475;51.454;7.150;2022-07-09T12:26:13;23.50;99.90
2931;DHT22;1475;51.454;7.150;2022-07-09T12:28:39;23.00;99.90
2931;DHT22;1475;51.454;7.150;2022-07-09T12:31:09;21.80;99.90
2931;DHT22;1475;51.454;7.150;2022-07-09T12:33:36;20.80;99.90
2931;DHT22;1475;51.454;7.150;2022-07-09T12:36:05;20.00;99.90
2931;DHT22;1475;51.454;7.150;2022-07-09T12:38:32;19.60;99.90
2931;DHT22;1475;51.454;7.150;2022-07-09T12:40:58;19.30;99.90
2931;DHT22;1475;51.454;7.150;2022-07-09T12:43:25;19.10;99.90
2931;DHT22;1475;51.454;7.150;2022-07-09T12:45:52;18.90;99.90
2931;DHT22;1475;51.454;7.150;2022-07-09T12:48:19;18.90;99.90
2931;DHT22;1475;51.454;7.150;2022-07-09T12:50:45;18.90;99.90
2931;DHT22;1475;51.454;7.150;2022-07-09T12:53:17;18.90;99.90
2931;DHT22;1475;51.454;7.150;2022-07-09T12:55:44;18.90;99.90
2931;DHT22;1475;51.454;7.150;2022-07-09T12:58:12;18.90;99.90
2931;DHT22;1475;51.454;7.150;2022-07-09T13:00:39;18.90;99.90
2931;DHT22;1475;51.454;7.150;2022-07-09T13:03:06;19.00;99.90
2931;DHT22;1475;51.454;7.150;2022-07-09T13:05:33;19.00;99.90
2931;DHT22;1475;51.454;7.150;2022-07-09T13:07:59;18.90;99.90
2931;DHT22;1475;51.454;7.150;2022-07-09T13:10:27;18.80;99.90
2931;DHT22;1475;51.454;7.150;2022-07-09T13:12:55;18.60;99.90
2931;DHT22;1475;51.454;7.150;2022-07-09T13:15:22;18.60;99.90
2931;DHT22;1475;51.454;7.150;2022-07-09T13:17:49;18.60;99.90
2931;DHT22;1475;51.454;7.150;2022-07-09T13:20:16;18.50;99.90
2931;DHT22;1475;51.454;7.150;2022-07-09T13:22:43;18.50;99.90
2931;DHT22;1475;51.454;7.150;2022-07-09T13:25:10;18.50;99.90
2931;DHT22;1475;51.454;7.150;2022-07-09T13:27:38;18.60;99.90
2931;DHT22;1475;51.454;7.150;2022-07-09T13:30:06;18.80;99.90
2931;DHT22;1475;51.454;7.150;2022-07-09T13:32:34;19.00;99.90
2931;DHT22;1475;51.454;7.150;2022-07-09T13:35:00;19.30;99.90
2931;DHT22;1475;51.454;7.150;2022-07-09T13:37:28;19.80;99.90
2931;DHT22;1475;51.454;7.150;2022-07-09T13:39:56;20.50;99.90
2931;DHT22;1475;51.454;7.150;2022-07-09T13:42:23;21.90;99.90
2931;DHT22;1475;51.454;7.150;2022-07-09T13:44:51;24.10;99.90
2931;DHT22;1475;51.454;7.150;2022-07-09T13:47:18;26.40;99.90
2931;DHT22;1475;51.454;7.150;2022-07-09T13:49:45;28.90;99.90
2931;DHT22;1475;51.454;7.150;2022-07-09T13:52:12;30.70;99.90
2931;DHT22;1475;51.454;7.150;2022-07-09T13:54:38;32.00;99.90
2931;DHT22;1475;51.454;7.150;2022-07-09T13:57:05;33.10;99.90
2931;DHT22;1475;51.454;7.150;2022-07-09T13:59:31;34.10;99.90
2931;DHT22;1475;51.454;7.150;2022-07-09T14:01:59;35.10;99.90
2931;DHT22;1475;51.454;7.150;2022-07-09T14:04:26;35.70;99.90
2931;DHT22;1475;51.454;7.150;2022-07-09T14:06:53;36.00;99.90
2931;DHT22;1475;51.454;7.150;2022-07-09T14:09:19;35.00;99.90
2931;DHT22;1475;51.454;7.150;2022-07-09T14:11:46;33.60;99.90
2931;DHT22;1475;51.454;7.150;2022-07-09T14:14:13;32.40;99.90
2931;DHT22;1475;51.454;7.150;2022-07-09T14:16:39;30.50;99.90
2931;DHT22;1475;51.454;7.150;2022-07-09T14:19:07;29.10;99.90
2931;DHT22;1475;51.454;7.150;2022-07-09T14:21:34;28.50;99.90
2931;DHT22;1475;51.454;7.150;2022-07-09T14:24:01;28.50;99.90
2931;DHT22;1475;51.454;7.150;2022-07-09T14:26:27;29.30;99.90
2931;DHT22;1475;51.454;7.150;2022-07-09T14:28:54;30.20;99.90
2931;DHT22;1475;51.454;7.150;2022-07-09T14:31:21;31.10;99.90
2931;DHT22;1475;51.454;7.150;2022-07-09T14:33:47;30.90;99.90
2931;DHT22;1475;51.454;7.150;2022-07-09T14:36:15;30.20;99.90
2931;DHT22;1475;51.454;7.150;2022-07-09T14:38:42;29.50;99.90
2931;DHT22;1475;51.454;7.150;2022-07-09T14:41:08;29.20;99.90
2931;DHT22;1475;51.454;7.150;2022-07-09T14:43:35;29.70;99.90
2931;DHT22;1475;51.454;7.150;2022-07-09T14:46:04;30.70;99.90
2931;DHT22;1475;51.454;7.150;2022-07-09T14:48:31;30.50;98.90
2931;DHT22;1475;51.454;7.150;2022-07-09T14:50:57;30.40;99.90
2931;DHT22;1475;51.454;7.150;2022-07-09T14:53:25;31.10;98.90
2931;DHT22;1475;51.454;7.150;2022-07-09T14:55:52;30.50;97.90
2931;DHT22;1475;51.454;7.150;2022-07-09T14:58:18;30.20;99.90
2931;DHT22;1475;51.454;7.150;2022-07-09T15:00:45;30.50;96.70
2931;DHT22;1475;51.454;7.150;2022-07-09T15:03:12;30.30;97.40
2931;DHT22;1475;51.454;7.150;2022-07-09T15:05:38;31.10;97.60
2931;DHT22;1475;51.454;7.150;2022-07-09T15:08:05;31.70;95.40
2931;DHT22;1475;51.454;7.150;2022-07-09T15:10:33;31.50;92.10
2931;DHT22;1475;51.454;7.150;2022-07-09T15:12:59;31.40;91.60
2931;DHT22;1475;51.454;7.150;2022-07-09T15:15:26;30.80;92.40
2931;DHT22;1475;51.454;7.150;2022-07-09T15:17:52;30.80;91.60
2931;DHT22;1475;51.454;7.150;2022-07-09T15:20:19;31.40;90.70
2931;DHT22;1475;51.454;7.150;2022-07-09T15:22:46;32.00;90.30
2931;DHT22;1475;51.454;7.150;2022-07-09T15:25:13;32.90;88.20
2931;DHT22;1475;51.454;7.150;2022-07-09T15:27:41;33.10;79.40
2931;DHT22;1475;51.454;7.150;2022-07-09T15:30:08;33.10;77.20
2931;DHT22;1475;51.454;7.150;2022-07-09T15:32:35;33.20;73.40
2931;DHT22;1475;51.454;7.150;2022-07-09T15:35:01;32.80;70.80
2931;DHT22;1475;51.454;7.150;2022-07-09T15:37:28;31.90;74.40
2931;DHT22;1475;51.454;7.150;2022-07-09T15:39:54;31.70;75.60
2931;DHT22;1475;51.454;7.150;2022-07-09T15:42:21;31.70;76.30
2931;DHT22;1475;51.454;7.150;2022-07-09T15:44:49;32.00;73.20
2931;DHT22;1475;51.454;7.150;2022-07-09T15:47:15;32.60;71.40
2931;DHT22;1475;51.454;7.150;2022-07-09T15:49:43;32.90;68.50
2931;DHT22;1475;51.454;7.150;2022-07-09T15:52:10;31.80;69.50
2931;DHT22;1475;51.454;7.150;2022-07-09T15:54:37;30.80;72.20
2931;DHT22;1475;51.454;7.150;2022-07-09T15:57:03;31.70;71.10
2931;DHT22;1475;51.454;7.150;2022-07-09T15:59:30;32.40;71.40
2931;DHT22;1475;51.454;7.150;2022-07-09T16:01:58;33.30;68.50
2931;DHT22;1475;51.454;7.150;2022-07-09T16:04:24;33.90;66.00
2931;DHT22;1475;51.454;7.150;2022-07-09T16:06:51;33.80;59.10
2931;DHT22;1475;51.454;7.150;2022-07-09T16:09:18;33.50;58.30